sensor_id;sensor_type;location;lat;lon;timestamp;P1;durP1;ratioP1;P2;durP2;ratioP2
61038;SDS011;46919;45.816;3.104;2022-07-05T00:02:12;3.80;;;1.13;;
61038;SDS011;46919;45.816;3.104;2022-07-05T00:04:37;5.45;;;1.48;;
61038;SDS011;46919;45.816;3.104;2022-07-05T00:07:03;4.35;;;1.55;;
61038;SDS011;46919;45.816;3.104;2022-07-05T00:09:47;3.05;;;1.15;;
61038;SDS011;46919;45.816;3.104;2022-07-05T00:12:13;3.17;;;1.42;;
61038;SDS011;46919;45.816;3.104;2022-07-05T00:14:39;2.90;;;1.25;;
61038;SDS011;46919;45.816;3.104;2022-07-05T00:17:05;2.33;;;1.20;;
61038;SDS011;46919;45.816;3.104;2022-07-05T00:19:31;4.75;;;1.00;;
61038;SDS011;46919;45.816;3.104;2022-07-05T00:21:57;3.17;;;1.35;;
61038;SDS011;46919;45.816;3.104;2022-07-05T00:24:23;4.93;;;1.30;;
61038;SDS011;46919;45.816;3.104;2022-07-05T00:26:49;5.45;;;1.30;;
61038;SDS011;46919;45.816;3.104;2022-07-05T00:29:14;6.38;;;1.30;;
61038;SDS011;46919;45.816;3.104;2022-07-05T00:31:40;2.55;;;1.20;;
61038;SDS011;46919;45.816;3.104;2022-07-05T00:34:05;6.30;;;1.58;;
61038;SDS011;46919;45.816;3.104;2022-07-05T00:36:30;3.83;;;1.13;;
61038;SDS011;46919;45.816;3.104;2022-07-05T00:38:56;3.88;;;1.40;;
61038;SDS011;46919;45.816;3.104;2022-07-05T00:41:21;3.15;;;1.30;;
61038;SDS011;46919;45.816;3.104;2022-07-05T00:43:53;2.90;;;1.05;;
61038;SDS011;46919;45.816;3.104;2022-07-05T00:46:20;2.15;;;1.17;;
61038;SDS011;46919;45.816;3.104;2022-07-05T00:48:45;1.60;;;1.20;;
61038;SDS011;46919;45.816;3.104;2022-07-05T00:51:11;3.15;;;1.40;;
61038;SDS011;46919;45.816;3.104;2022-07-05T00:53:36;6.82;;;1.25;;
61038;SDS011;46919;45.816;3.104;2022-07-05T00:56:02;5.47;;;1.30;;
61038;SDS011;46919;45.816;3.104;2022-07-05T00:58:28;3.15;;;1.20;;
61038;SDS011;46919;45.816;3.104;2022-07-05T01:00:54;3.78;;;1.30;;
61038;SDS011;46919;45.816;3.104;2022-07-05T01:03:20;5.18;;;1.10;;
61038;SDS011;46919;45.816;3.104;2022-07-05T01:05:45;3.85;;;1.15;;
61038;SDS011;46919;45.816;3.104;2022-07-05T01:08:10;5.30;;;1.23;;
61038;SDS011;46919;45.816;3.104;2022-07-05T01:10:38;1.45;;;1.23;;
61038;SDS011;46919;45.816;3.104;2022-07-05T01:13:06;3.40;;;1.35;;
61038;SDS011;46919;45.816;3.104;2022-07-05T01:15:32;2.30;;;1.10;;
61038;SDS011;46919;45.816;3.104;2022-07-05T01:17:58;5.07;;;1.38;;
61038;SDS011;46919;45.816;3.104;2022-07-05T01:20:24;3.08;;;1.40;;
61038;SDS011;46919;45.816;3.104;2022-07-05T01:25:17;4.70;;;1.13;;
61038;SDS011;46919;45.816;3.104;2022-07-05T01:27:43;3.50;;;1.08;;
61038;SDS011;46919;45.816;3.104;2022-07-05T01:30:09;2.30;;;1.30;;
61038;SDS011;46919;45.816;3.104;2022-07-05T01:32:35;3.90;;;1.17;;
61038;SDS011;46919;45.816;3.104;2022-07-05T01:35:01;4.32;;;1.38;;
61038;SDS011;46919;45.816;3.104;2022-07-05T01:37:26;3.08;;;1.30;;
61038;SDS011;46919;45.816;3.104;2022-07-05T01:39:54;3.35;;;1.33;;
61038;SDS011;46919;45.816;3.104;2022-07-05T01:42:20;7.10;;;1.25;;
61038;SDS011;46919;45.816;3.104;2022-07-05T01:44:46;4.60;;;1.30;;
61038;SDS011;46919;45.816;3.104;2022-07-05T01:47:11;3.55;;;1.25;;
61038;SDS011;46919;45.816;3.104;2022-07-05T01:49:41;2.80;;;1.30;;
61038;SDS011;46919;45.816;3.104;2022-07-05T01:52:11;4.75;;;1.10;;
61038;SDS011;46919;45.816;3.104;2022-07-05T01:54:37;4.85;;;1.20;;
61038;SDS011;46919;45.816;3.104;2022-07-05T01:57:04;2.15;;;1.42;;
61038;SDS011;46919;45.816;3.104;2022-07-05T01:59:34;2.78;;;1.38;;
61038;SDS011;46919;45.816;3.104;2022-07-05T02:02:00;6.55;;;1.40;;
61038;SDS011;46919;45.816;3.104;2022-07-05T02:04:27;3.55;;;1.30;;
61038;SDS011;46919;45.816;3.104;2022-07-05T02:06:53;2.20;;;1.45;;
61038;SDS011;46919;45.816;3.104;2022-07-05T02:09:18;2.35;;;1.40;;
61038;SDS011;46919;45.816;3.104;2022-07-05T02:11:44;4.47;;;2.00;;
61038;SDS011;46919;45.816;3.104;2022-07-05T02:14:09;11.00;;;1.60;;
61038;SDS011;46919;45.816;3.104;2022-07-05T02:16:36;2.83;;;1.70;;
61038;SDS011;46919;45.816;3.104;2022-07-05T02:19:02;3.25;;;1.88;;
61038;SDS011;46919;45.816;3.104;2022-07-05T02:21:27;4.65;;;1.88;;
61038;SDS011;46919;45.816;3.104;2022-07-05T02:23:54;2.17;;;1.50;;
61038;SDS011;46919;45.816;3.104;2022-07-05T02:26:19;2.63;;;1.30;;
61038;SDS011;46919;45.816;3.104;2022-07-05T02:28:45;2.00;;;1.63;;
61038;SDS011;46919;45.816;3.104;2022-07-05T02:31:11;3.80;;;1.70;;
61038;SDS011;46919;45.816;3.104;2022-07-05T02:33:37;5.25;;;1.45;;
61038;SDS011;46919;45.816;3.104;2022-07-05T02:36:09;4.22;;;1.30;;
61038;SDS011;46919;45.816;3.104;2022-07-05T02:38:36;4.47;;;1.65;;
61038;SDS011;46919;45.816;3.104;2022-07-05T02:41:08;5.03;;;1.58;;
61038;SDS011;46919;45.816;3.104;2022-07-05T02:43:35;5.40;;;1.40;;
61038;SDS011;46919;45.816;3.104;2022-07-05T02:46:01;2.10;;;1.42;;
61038;SDS011;46919;45.816;3.104;2022-07-05T02:48:28;3.30;;;1.40;;
61038;SDS011;46919;45.816;3.104;2022-07-05T02:50:53;2.78;;;1.48;;
61038;SDS011;46919;45.816;3.104;2022-07-05T02:53:19;3.63;;;1.60;;
61038;SDS011;46919;45.816;3.104;2022-07-05T02:55:44;2.88;;;1.60;;
61038;SDS011;46919;45.816;3.104;2022-07-05T02:58:09;2.53;;;1.40;;
61038;SDS011;46919;45.816;3.104;2022-07-05T03:00:35;4.57;;;1.60;;
61038;SDS011;46919;45.816;3.104;2022-07-05T03:03:00;7.47;;;1.80;;
61038;SDS011;46919;45.816;3.104;2022-07-05T03:05:26;2.13;;;1.85;;
61038;SDS011;46919;45.816;3.104;2022-07-05T03:07:51;3.00;;;1.83;;
61038;SDS011;46919;45.816;3.104;2022-07-05T03:10:17;2.53;;;2.03;;
61038;SDS011;46919;45.816;3.104;2022-07-05T03:12:42;3.92;;;2.00;;
61038;SDS011;46919;45.816;3.104;2022-07-05T03:15:08;4.15;;;2.08;;
61038;SDS011;46919;45.816;3.104;2022-07-05T03:17:34;3.55;;;2.25;;
61038;SDS011;46919;45.816;3.104;2022-07-05T03:19:59;2.78;;;1.75;;
61038;SDS011;46919;45.816;3.104;2022-07-05T03:22:24;4.05;;;2.00;;
61038;SDS011;46919;45.816;3.104;2022-07-05T03:24:50;3.50;;;2.00;;
61038;SDS011;46919;45.816;3.104;2022-07-05T03:27:15;3.35;;;1.80;;
61038;SDS011;46919;45.816;3.104;2022-07-05T03:29:41;2.15;;;1.83;;
61038;SDS011;46919;45.816;3.104;2022-07-05T03:32:06;3.40;;;1.90;;
61038;SDS011;46919;45.816;3.104;2022-07-05T03:34:32;2.38;;;1.48;;
61038;SDS011;46919;45.816;3.104;2022-07-05T03:36:57;3.95;;;2.20;;
61038;SDS011;46919;45.816;3.104;2022-07-05T03:39:23;4.40;;;2.05;;
61038;SDS011;46919;45.816;3.104;2022-07-05T03:41:48;6.53;;;1.98;;
61038;SDS011;46919;45.816;3.104;2022-07-05T03:44:13;6.10;;;1.40;;
61038;SDS011;46919;45.816;3.104;2022-07-05T03:46:39;2.42;;;1.70;;
61038;SDS011;46919;45.816;3.104;2022-07-05T03:49:04;2.35;;;1.58;;
61038;SDS011;46919;45.816;3.104;2022-07-05T03:51:29;3.72;;;1.60;;
61038;SDS011;46919;45.816;3.104;2022-07-05T03:53:55;4.00;;;1.67;;
61038;SDS011;46919;45.816;3.104;2022-07-05T03:56:20;7.03;;;1.65;;
61038;SDS011;46919;45.816;3.104;2022-07-05T03:58:48;3.92;;;1.92;;
61038;SDS011;46919;45.816;3.104;2022-07-05T04:01:14;3.75;;;1.88;;
61038;SDS011;46919;45.816;3.104;2022-07-05T04:03:41;5.07;;;2.08;;
61038;SDS011;46919;45.816;3.104;2022-07-05T04:06:07;2.10;;;1.65;;
61038;SDS011;46919;45.816;3.104;2022-07-05T04:08:34;3.90;;;1.55;;
61038;SDS011;46919;45.816;3.104;2022-07-05T04:11:00;5.32;;;1.90;;
61038;SDS011;46919;45.816;3.104;2022-07-05T04:13:25;4.32;;;1.90;;
61038;SDS011;46919;45.816;3.104;2022-07-05T04:15:51;3.15;;;1.58;;
61038;SDS011;46919;45.816;3.104;2022-07-05T04:18:18;2.50;;;1.73;;
61038;SDS011;46919;45.816;3.104;2022-07-05T04:20:43;2.28;;;1.90;;
61038;SDS011;46919;45.816;3.104;2022-07-05T04:23:09;6.15;;;2.30;;
61038;SDS011;46919;45.816;3.104;2022-07-05T04:25:34;2.03;;;1.83;;
61038;SDS011;46919;45.816;3.104;2022-07-05T04:28:00;2.63;;;1.67;;
61038;SDS011;46919;45.816;3.104;2022-07-05T04:30:25;3.30;;;1.88;;
61038;SDS011;46919;45.816;3.104;2022-07-05T04:32:51;4.13;;;1.80;;
61038;SDS011;46919;45.816;3.104;2022-07-05T04:35:17;3.22;;;1.98;;
61038;SDS011;46919;45.816;3.104;2022-07-05T04:37:43;2.53;;;2.00;;
61038;SDS011;46919;45.816;3.104;2022-07-05T04:40:09;7.57;;;1.88;;
61038;SDS011;46919;45.816;3.104;2022-07-05T04:42:36;2.08;;;1.80;;
61038;SDS011;46919;45.816;3.104;2022-07-05T04:45:02;4.43;;;1.90;;
61038;SDS011;46919;45.816;3.104;2022-07-05T04:47:28;3.80;;;2.15;;
61038;SDS011;46919;45.816;3.104;2022-07-05T04:49:54;3.60;;;2.00;;
61038;SDS011;46919;45.816;3.104;2022-07-05T04:52:22;2.97;;;1.83;;
61038;SDS011;46919;45.816;3.104;2022-07-05T04:54:47;4.97;;;2.17;;
61038;SDS011;46919;45.816;3.104;2022-07-05T04:57:13;2.55;;;1.75;;
61038;SDS011;46919;45.816;3.104;2022-07-05T04:59:38;4.35;;;2.03;;
61038;SDS011;46919;45.816;3.104;2022-07-05T05:02:04;2.72;;;2.05;;
61038;SDS011;46919;45.816;3.104;2022-07-05T05:04:29;5.50;;;2.05;;
61038;SDS011;46919;45.816;3.104;2022-07-05T05:06:55;2.35;;;1.98;;
61038;SDS011;46919;45.816;3.104;2022-07-05T05:09:20;4.32;;;2.10;;
61038;SDS011;46919;45.816;3.104;2022-07-05T05:11:46;4.28;;;2.20;;
61038;SDS011;46919;45.816;3.104;2022-07-05T05:14:12;2.30;;;1.83;;
61038;SDS011;46919;45.816;3.104;2022-07-05T05:16:37;3.65;;;2.47;;
61038;SDS011;46919;45.816;3.104;2022-07-05T05:19:03;3.08;;;2.50;;
61038;SDS011;46919;45.816;3.104;2022-07-05T05:21:28;5.95;;;2.80;;
61038;SDS011;46919;45.816;3.104;2022-07-05T05:23:54;5.50;;;3.10;;
61038;SDS011;46919;45.816;3.104;2022-07-05T05:26:19;5.15;;;4.10;;
61038;SDS011;46919;45.816;3.104;2022-07-05T05:28:45;7.57;;;3.42;;
61038;SDS011;46919;45.816;3.104;2022-07-05T05:31:10;7.68;;;3.97;;
61038;SDS011;46919;45.816;3.104;2022-07-05T05:33:36;10.88;;;5.13;;
61038;SDS011;46919;45.816;3.104;2022-07-05T05:36:01;9.25;;;5.45;;
61038;SDS011;46919;45.816;3.104;2022-07-05T05:38:27;9.65;;;4.75;;
61038;SDS011;46919;45.816;3.104;2022-07-05T05:40:53;8.02;;;4.30;;
61038;SDS011;46919;45.816;3.104;2022-07-05T05:43:18;11.95;;;5.10;;
61038;SDS011;46919;45.816;3.104;2022-07-05T05:45:44;7.78;;;4.28;;
61038;SDS011;46919;45.816;3.104;2022-07-05T05:48:09;6.45;;;4.30;;
61038;SDS011;46919;45.816;3.104;2022-07-05T05:50:35;10.75;;;4.60;;
61038;SDS011;46919;45.816;3.104;2022-07-05T05:53:04;5.68;;;4.40;;
61038;SDS011;46919;45.816;3.104;2022-07-05T05:55:30;8.77;;;4.57;;
61038;SDS011;46919;45.816;3.104;2022-07-05T05:57:56;8.07;;;4.32;;
61038;SDS011;46919;45.816;3.104;2022-07-05T06:00:27;8.32;;;5.10;;
61038;SDS011;46919;45.816;3.104;2022-07-05T06:02:52;6.55;;;4.47;;
61038;SDS011;46919;45.816;3.104;2022-07-05T06:05:18;5.97;;;4.43;;
61038;SDS011;46919;45.816;3.104;2022-07-05T06:10:14;7.85;;;4.47;;
61038;SDS011;46919;45.816;3.104;2022-07-05T06:13:00;6.90;;;4.38;;
61038;SDS011;46919;45.816;3.104;2022-07-05T06:15:27;9.40;;;4.68;;
61038;SDS011;46919;45.816;3.104;2022-07-05T06:17:52;11.02;;;5.00;;
61038;SDS011;46919;45.816;3.104;2022-07-05T06:20:21;8.07;;;4.80;;
61038;SDS011;46919;45.816;3.104;2022-07-05T06:22:49;7.30;;;3.90;;
61038;SDS011;46919;45.816;3.104;2022-07-05T06:25:15;8.05;;;3.88;;
61038;SDS011;46919;45.816;3.104;2022-07-05T06:27:44;6.70;;;3.85;;
61038;SDS011;46919;45.816;3.104;2022-07-05T06:30:13;9.00;;;3.42;;
61038;SDS011;46919;45.816;3.104;2022-07-05T06:32:39;9.73;;;3.00;;
61038;SDS011;46919;45.816;3.104;2022-07-05T06:35:05;6.30;;;2.90;;
61038;SDS011;46919;45.816;3.104;2022-07-05T06:40:07;4.82;;;1.98;;
61038;SDS011;46919;45.816;3.104;2022-07-05T06:42:34;6.20;;;2.00;;
61038;SDS011;46919;45.816;3.104;2022-07-05T06:44:59;6.43;;;1.90;;
61038;SDS011;46919;45.816;3.104;2022-07-05T06:47:25;4.95;;;1.98;;
61038;SDS011;46919;45.816;3.104;2022-07-05T06:49:50;7.68;;;2.15;;
61038;SDS011;46919;45.816;3.104;2022-07-05T06:52:16;10.57;;;2.05;;
61038;SDS011;46919;45.816;3.104;2022-07-05T06:54:41;6.47;;;1.90;;
61038;SDS011;46919;45.816;3.104;2022-07-05T06:57:07;5.32;;;1.90;;
61038;SDS011;46919;45.816;3.104;2022-07-05T06:59:32;3.40;;;1.77;;
61038;SDS011;46919;45.816;3.104;2022-07-05T07:01:57;7.65;;;2.10;;
61038;SDS011;46919;45.816;3.104;2022-07-05T07:04:23;4.00;;;1.55;;
61038;SDS011;46919;45.816;3.104;2022-07-05T07:06:48;8.35;;;1.60;;
61038;SDS011;46919;45.816;3.104;2022-07-05T07:09:13;5.85;;;1.65;;
61038;SDS011;46919;45.816;3.104;2022-07-05T07:11:47;2.05;;;1.15;;
61038;SDS011;46919;45.816;3.104;2022-07-05T07:14:13;2.60;;;1.20;;
61038;SDS011;46919;45.816;3.104;2022-07-05T07:16:39;5.85;;;1.15;;
61038;SDS011;46919;45.816;3.104;2022-07-05T07:19:05;1.40;;;1.10;;
61038;SDS011;46919;45.816;3.104;2022-07-05T07:21:30;5.72;;;1.70;;
61038;SDS011;46919;45.816;3.104;2022-07-05T07:23:55;4.43;;;1.30;;
61038;SDS011;46919;45.816;3.104;2022-07-05T07:26:21;3.25;;;1.05;;
61038;SDS011;46919;45.816;3.104;2022-07-05T07:28:46;6.90;;;1.30;;
61038;SDS011;46919;45.816;3.104;2022-07-05T07:31:12;8.35;;;1.50;;
61038;SDS011;46919;45.816;3.104;2022-07-05T07:33:37;4.05;;;1.40;;
61038;SDS011;46919;45.816;3.104;2022-07-05T07:36:02;2.92;;;1.27;;
61038;SDS011;46919;45.816;3.104;2022-07-05T07:38:28;5.88;;;1.27;;
61038;SDS011;46919;45.816;3.104;2022-07-05T07:40:54;3.40;;;1.20;;
61038;SDS011;46919;45.816;3.104;2022-07-05T07:43:20;1.83;;;1.10;;
61038;SDS011;46919;45.816;3.104;2022-07-05T07:45:46;2.55;;;1.20;;
61038;SDS011;46919;45.816;3.104;2022-07-05T07:48:13;5.68;;;1.20;;
61038;SDS011;46919;45.816;3.104;2022-07-05T07:50:38;2.85;;;1.10;;
61038;SDS011;46919;45.816;3.104;2022-07-05T07:53:04;5.78;;;1.15;;
61038;SDS011;46919;45.816;3.104;2022-07-05T07:55:29;3.97;;;1.27;;
61038;SDS011;46919;45.816;3.104;2022-07-05T07:57:55;5.20;;;1.45;;
61038;SDS011;46919;45.816;3.104;2022-07-05T08:00:20;6.70;;;1.30;;
61038;SDS011;46919;45.816;3.104;2022-07-05T08:02:46;4.65;;;1.45;;
61038;SDS011;46919;45.816;3.104;2022-07-05T08:05:11;2.08;;;1.40;;
61038;SDS011;46919;45.816;3.104;2022-07-05T08:07:37;3.95;;;1.42;;
61038;SDS011;46919;45.816;3.104;2022-07-05T08:10:05;3.20;;;1.15;;
61038;SDS011;46919;45.816;3.104;2022-07-05T08:12:32;4.78;;;1.30;;
61038;SDS011;46919;45.816;3.104;2022-07-05T08:14:58;2.65;;;1.20;;
61038;SDS011;46919;45.816;3.104;2022-07-05T08:17:24;3.50;;;1.20;;
61038;SDS011;46919;45.816;3.104;2022-07-05T08:19:49;2.08;;;1.33;;
61038;SDS011;46919;45.816;3.104;2022-07-05T08:22:33;6.65;;;1.20;;
61038;SDS011;46919;45.816;3.104;2022-07-05T08:24:59;4.75;;;1.23;;
61038;SDS011;46919;45.816;3.104;2022-07-05T08:27:24;1.98;;;1.20;;
61038;SDS011;46919;45.816;3.104;2022-07-05T08:29:50;3.05;;;1.40;;
61038;SDS011;46919;45.816;3.104;2022-07-05T08:32:16;3.67;;;1.20;;
61038;SDS011;46919;45.816;3.104;2022-07-05T08:34:42;3.42;;;1.20;;
61038;SDS011;46919;45.816;3.104;2022-07-05T08:37:07;6.75;;;1.30;;
61038;SDS011;46919;45.816;3.104;2022-07-05T08:39:34;4.25;;;1.42;;
61038;SDS011;46919;45.816;3.104;2022-07-05T08:42:00;5.07;;;1.33;;
61038;SDS011;46919;45.816;3.104;2022-07-05T08:44:29;3.17;;;1.15;;
61038;SDS011;46919;45.816;3.104;2022-07-05T08:47:01;4.32;;;1.10;;
61038;SDS011;46919;45.816;3.104;2022-07-05T08:49:28;3.10;;;1.30;;
61038;SDS011;46919;45.816;3.104;2022-07-05T08:51:56;3.08;;;1.40;;
61038;SDS011;46919;45.816;3.104;2022-07-05T08:54:22;3.75;;;1.10;;
61038;SDS011;46919;45.816;3.104;2022-07-05T08:56:49;3.47;;;1.00;;
61038;SDS011;46919;45.816;3.104;2022-07-05T08:59:15;5.72;;;1.00;;
61038;SDS011;46919;45.816;3.104;2022-07-05T09:01:40;4.40;;;1.02;;
61038;SDS011;46919;45.816;3.104;2022-07-05T09:04:09;6.70;;;1.10;;
61038;SDS011;46919;45.816;3.104;2022-07-05T09:06:39;1.20;;;1.00;;
61038;SDS011;46919;45.816;3.104;2022-07-05T09:09:06;4.70;;;1.00;;
61038;SDS011;46919;45.816;3.104;2022-07-05T09:11:41;4.75;;;1.13;;
61038;SDS011;46919;45.816;3.104;2022-07-05T09:14:22;2.95;;;0.90;;
61038;SDS011;46919;45.816;3.104;2022-07-05T09:16:50;6.25;;;1.25;;
61038;SDS011;46919;45.816;3.104;2022-07-05T09:19:16;2.65;;;1.20;;
61038;SDS011;46919;45.816;3.104;2022-07-05T09:21:41;4.32;;;1.17;;
61038;SDS011;46919;45.816;3.104;2022-07-05T09:24:08;2.25;;;0.90;;
61038;SDS011;46919;45.816;3.104;2022-07-05T09:29:17;2.03;;;1.00;;
61038;SDS011;46919;45.816;3.104;2022-07-05T09:31:44;4.13;;;1.00;;
61038;SDS011;46919;45.816;3.104;2022-07-05T09:34:12;4.70;;;0.88;;
61038;SDS011;46919;45.816;3.104;2022-07-05T09:44:49;3.55;;;0.93;;
61038;SDS011;46919;45.816;3.104;2022-07-05T09:47:17;2.90;;;0.70;;
61038;SDS011;46919;45.816;3.104;2022-07-05T09:49:47;4.72;;;0.70;;
61038;SDS011;46919;45.816;3.104;2022-07-05T09:57:31;3.00;;;0.70;;
61038;SDS011;46919;45.816;3.104;2022-07-05T10:00:03;4.45;;;0.80;;
61038;SDS011;46919;45.816;3.104;2022-07-05T10:02:49;3.60;;;0.88;;
61038;SDS011;46919;45.816;3.104;2022-07-05T10:05:23;6.70;;;0.70;;
61038;SDS011;46919;45.816;3.104;2022-07-05T10:07:50;2.28;;;0.70;;
61038;SDS011;46919;45.816;3.104;2022-07-05T10:10:18;4.75;;;0.90;;
61038;SDS011;46919;45.816;3.104;2022-07-05T10:12:45;1.73;;;0.90;;
61038;SDS011;46919;45.816;3.104;2022-07-05T10:15:16;4.88;;;0.98;;
61038;SDS011;46919;45.816;3.104;2022-07-05T10:17:50;5.40;;;0.90;;
61038;SDS011;46919;45.816;3.104;2022-07-05T10:23:13;4.80;;;0.70;;
61038;SDS011;46919;45.816;3.104;2022-07-05T10:25:41;1.90;;;0.90;;
61038;SDS011;46919;45.816;3.104;2022-07-05T10:28:09;3.55;;;0.90;;
61038;SDS011;46919;45.816;3.104;2022-07-05T10:30:35;1.20;;;0.70;;
61038;SDS011;46919;45.816;3.104;2022-07-05T10:33:02;3.42;;;0.80;;
61038;SDS011;46919;45.816;3.104;2022-07-05T10:35:28;2.25;;;1.10;;
61038;SDS011;46919;45.816;3.104;2022-07-05T10:37:54;3.75;;;1.10;;
61038;SDS011;46919;45.816;3.104;2022-07-05T10:40:21;3.80;;;0.98;;
61038;SDS011;46919;45.816;3.104;2022-07-05T10:42:56;1.25;;;0.80;;
61038;SDS011;46919;45.816;3.104;2022-07-05T10:45:46;2.50;;;1.17;;
61038;SDS011;46919;45.816;3.104;2022-07-05T10:48:19;3.67;;;0.80;;
61038;SDS011;46919;45.816;3.104;2022-07-05T10:53:24;3.85;;;0.80;;
61038;SDS011;46919;45.816;3.104;2022-07-05T10:58:31;1.90;;;0.60;;
61038;SDS011;46919;45.816;3.104;2022-07-05T11:01:43;2.67;;;0.73;;
61038;SDS011;46919;45.816;3.104;2022-07-05T11:12:21;4.97;;;0.73;;
61038;SDS011;46919;45.816;3.104;2022-07-05T11:14:32;3.92;;;0.63;;
61038;SDS011;46919;45.816;3.104;2022-07-05T11:19:35;1.42;;;0.50;;
61038;SDS011;46919;45.816;3.104;2022-07-05T11:22:31;3.88;;;0.80;;
61038;SDS011;46919;45.816;3.104;2022-07-05T11:24:57;5.60;;;0.80;;
61038;SDS011;46919;45.816;3.104;2022-07-05T11:27:24;3.70;;;0.50;;
61038;SDS011;46919;45.816;3.104;2022-07-05T11:29:53;3.45;;;0.77;;
61038;SDS011;46919;45.816;3.104;2022-07-05T11:32:20;3.63;;;0.63;;
61038;SDS011;46919;45.816;3.104;2022-07-05T11:35:18;3.42;;;0.85;;
61038;SDS011;46919;45.816;3.104;2022-07-05T11:37:58;3.05;;;0.70;;
61038;SDS011;46919;45.816;3.104;2022-07-05T11:40:36;2.95;;;0.50;;
61038;SDS011;46919;45.816;3.104;2022-07-05T11:43:02;3.20;;;0.55;;
61038;SDS011;46919;45.816;3.104;2022-07-05T11:45:29;1.30;;;0.68;;
61038;SDS011;46919;45.816;3.104;2022-07-05T11:47:55;2.90;;;0.73;;
61038;SDS011;46919;45.816;3.104;2022-07-05T11:50:29;1.98;;;0.90;;
61038;SDS011;46919;45.816;3.104;2022-07-05T11:52:56;3.38;;;0.60;;
61038;SDS011;46919;45.816;3.104;2022-07-05T11:55:23;3.78;;;0.80;;
61038;SDS011;46919;45.816;3.104;2022-07-05T11:57:51;2.67;;;0.85;;
61038;SDS011;46919;45.816;3.104;2022-07-05T12:02:54;3.78;;;0.80;;
61038;SDS011;46919;45.816;3.104;2022-07-05T12:05:20;5.25;;;0.70;;
61038;SDS011;46919;45.816;3.104;2022-07-05T12:07:49;3.00;;;0.80;;
61038;SDS011;46919;45.816;3.104;2022-07-05T12:10:16;1.45;;;0.60;;
61038;SDS011;46919;45.816;3.104;2022-07-05T12:13:04;2.72;;;0.55;;
61038;SDS011;46919;45.816;3.104;2022-07-05T12:15:33;3.72;;;0.65;;
61038;SDS011;46919;45.816;3.104;2022-07-05T12:18:00;5.30;;;0.80;;
61038;SDS011;46919;45.816;3.104;2022-07-05T12:20:30;2.90;;;0.70;;
61038;SDS011;46919;45.816;3.104;2022-07-05T12:22:58;2.78;;;0.68;;
61038;SDS011;46919;45.816;3.104;2022-07-05T12:25:23;4.45;;;0.60;;
61038;SDS011;46919;45.816;3.104;2022-07-05T12:27:51;2.30;;;0.70;;
61038;SDS011;46919;45.816;3.104;2022-07-05T12:30:18;3.38;;;0.70;;
61038;SDS011;46919;45.816;3.104;2022-07-05T12:33:00;3.13;;;0.75;;
61038;SDS011;46919;45.816;3.104;2022-07-05T12:35:32;4.20;;;0.70;;
61038;SDS011;46919;45.816;3.104;2022-07-05T12:38:12;2.85;;;0.60;;
61038;SDS011;46919;45.816;3.104;2022-07-05T12:40:41;2.28;;;0.60;;
61038;SDS011;46919;45.816;3.104;2022-07-05T12:43:11;1.27;;;0.63;;
61038;SDS011;46919;45.816;3.104;2022-07-05T12:45:38;2.50;;;0.57;;
61038;SDS011;46919;45.816;3.104;2022-07-05T12:48:06;2.78;;;0.70;;
61038;SDS011;46919;45.816;3.104;2022-07-05T12:50:46;1.80;;;0.60;;
61038;SDS011;46919;45.816;3.104;2022-07-05T12:53:15;3.00;;;0.70;;
61038;SDS011;46919;45.816;3.104;2022-07-05T12:56:04;1.58;;;0.60;;
61038;SDS011;46919;45.816;3.104;2022-07-05T12:58:56;2.22;;;0.60;;
61038;SDS011;46919;45.816;3.104;2022-07-05T13:01:23;2.85;;;0.50;;
61038;SDS011;46919;45.816;3.104;2022-07-05T13:03:56;6.63;;;0.70;;
61038;SDS011;46919;45.816;3.104;2022-07-05T13:06:23;1.38;;;0.50;;
61038;SDS011;46919;45.816;3.104;2022-07-05T13:09:03;3.33;;;0.50;;
61038;SDS011;46919;45.816;3.104;2022-07-05T13:11:29;2.05;;;0.85;;
61038;SDS011;46919;45.816;3.104;2022-07-05T13:13:57;2.67;;;0.70;;
61038;SDS011;46919;45.816;3.104;2022-07-05T13:16:23;2.42;;;0.70;;
61038;SDS011;46919;45.816;3.104;2022-07-05T13:18:48;3.25;;;0.57;;
61038;SDS011;46919;45.816;3.104;2022-07-05T13:21:14;2.90;;;0.90;;
61038;SDS011;46919;45.816;3.104;2022-07-05T13:23:39;2.45;;;0.60;;
61038;SDS011;46919;45.816;3.104;2022-07-05T13:26:04;2.47;;;0.70;;
61038;SDS011;46919;45.816;3.104;2022-07-05T13:28:30;1.63;;;0.60;;
61038;SDS011;46919;45.816;3.104;2022-07-05T13:30:55;1.13;;;0.75;;
61038;SDS011;46919;45.816;3.104;2022-07-05T13:33:20;3.70;;;0.68;;
61038;SDS011;46919;45.816;3.104;2022-07-05T13:35:46;1.67;;;0.80;;
61038;SDS011;46919;45.816;3.104;2022-07-05T13:38:11;3.00;;;0.70;;
61038;SDS011;46919;45.816;3.104;2022-07-05T13:40:37;5.03;;;0.95;;
61038;SDS011;46919;45.816;3.104;2022-07-05T13:43:02;2.60;;;0.60;;
61038;SDS011;46919;45.816;3.104;2022-07-05T13:45:27;4.90;;;0.85;;
61038;SDS011;46919;45.816;3.104;2022-07-05T13:47:53;1.38;;;0.73;;
61038;SDS011;46919;45.816;3.104;2022-07-05T13:50:18;1.80;;;0.60;;
61038;SDS011;46919;45.816;3.104;2022-07-05T13:53:00;2.58;;;0.57;;
61038;SDS011;46919;45.816;3.104;2022-07-05T13:55:26;3.10;;;0.80;;
61038;SDS011;46919;45.816;3.104;2022-07-05T13:57:52;2.72;;;0.88;;
61038;SDS011;46919;45.816;3.104;2022-07-05T14:00:18;1.80;;;0.70;;
61038;SDS011;46919;45.816;3.104;2022-07-05T14:02:43;3.38;;;0.60;;
61038;SDS011;46919;45.816;3.104;2022-07-05T14:05:09;3.35;;;0.70;;
61038;SDS011;46919;45.816;3.104;2022-07-05T14:07:35;0.60;;;0.50;;
61038;SDS011;46919;45.816;3.104;2022-07-05T14:10:01;3.72;;;0.70;;
61038;SDS011;46919;45.816;3.104;2022-07-05T14:12:27;2.00;;;0.75;;
61038;SDS011;46919;45.816;3.104;2022-07-05T14:14:52;4.15;;;0.80;;
61038;SDS011;46919;45.816;3.104;2022-07-05T14:17:17;3.13;;;0.80;;
61038;SDS011;46919;45.816;3.104;2022-07-05T14:19:43;1.52;;;0.50;;
61038;SDS011;46919;45.816;3.104;2022-07-05T14:22:08;1.48;;;0.75;;
61038;SDS011;46919;45.816;3.104;2022-07-05T14:24:34;1.25;;;0.60;;
61038;SDS011;46919;45.816;3.104;2022-07-05T14:26:59;2.10;;;0.80;;
61038;SDS011;46919;45.816;3.104;2022-07-05T14:29:25;2.50;;;0.75;;
61038;SDS011;46919;45.816;3.104;2022-07-05T14:31:51;4.90;;;0.80;;
61038;SDS011;46919;45.816;3.104;2022-07-05T14:34:16;4.32;;;0.75;;
61038;SDS011;46919;45.816;3.104;2022-07-05T14:36:42;1.58;;;0.60;;
61038;SDS011;46919;45.816;3.104;2022-07-05T14:39:07;0.73;;;0.60;;
61038;SDS011;46919;45.816;3.104;2022-07-05T14:41:32;1.75;;;0.50;;
61038;SDS011;46919;45.816;3.104;2022-07-05T14:43:58;0.98;;;0.60;;
61038;SDS011;46919;45.816;3.104;2022-07-05T14:46:23;3.92;;;0.60;;
61038;SDS011;46919;45.816;3.104;2022-07-05T14:48:49;2.63;;;0.65;;
61038;SDS011;46919;45.816;3.104;2022-07-05T14:51:14;3.47;;;0.50;;
61038;SDS011;46919;45.816;3.104;2022-07-05T14:53:41;3.97;;;0.80;;
61038;SDS011;46919;45.816;3.104;2022-07-05T14:56:07;1.42;;;0.68;;
61038;SDS011;46919;45.816;3.104;2022-07-05T14:58:33;1.33;;;0.70;;
61038;SDS011;46919;45.816;3.104;2022-07-05T15:00:58;3.40;;;0.70;;
61038;SDS011;46919;45.816;3.104;2022-07-05T15:03:24;1.40;;;0.70;;
61038;SDS011;46919;45.816;3.104;2022-07-05T15:05:51;1.90;;;0.70;;
61038;SDS011;46919;45.816;3.104;2022-07-05T15:08:17;1.58;;;0.70;;
61038;SDS011;46919;45.816;3.104;2022-07-05T15:10:44;1.73;;;0.50;;
61038;SDS011;46919;45.816;3.104;2022-07-05T15:13:10;2.13;;;0.60;;
61038;SDS011;46919;45.816;3.104;2022-07-05T15:15:36;3.53;;;0.60;;
61038;SDS011;46919;45.816;3.104;2022-07-05T15:18:02;3.88;;;0.80;;
61038;SDS011;46919;45.816;3.104;2022-07-05T15:20:28;3.90;;;0.70;;
61038;SDS011;46919;45.816;3.104;2022-07-05T15:22:53;3.13;;;0.90;;
61038;SDS011;46919;45.816;3.104;2022-07-05T15:25:18;3.33;;;0.70;;
61038;SDS011;46919;45.816;3.104;2022-07-05T15:27:44;4.45;;;0.65;;
61038;SDS011;46919;45.816;3.104;2022-07-05T15:30:10;5.15;;;0.50;;
61038;SDS011;46919;45.816;3.104;2022-07-05T15:32:37;3.33;;;0.70;;
61038;SDS011;46919;45.816;3.104;2022-07-05T15:35:03;2.65;;;0.82;;